Time;durP1;ratioP1;P1;durP2;ratioP2;P2;SDS_P1;SDS_P2;PMS_P1;PMS_P2;Temp;Humidity;BMP_temperature;BMP_pressure;BME280_temperature;BME280_humidity;BME280_pressure;Samples;Min_cycle;Max_cycle;Signal;HPM_P1;HPM_P2
2023/03/20 00:00:33;;;;;;;4.07;3.87;;;18.30;64.70;;;;;;5059557;28;43681;-71
2023/03/20 00:03:01;;;;;;;4.23;4.03;;;18.40;64.40;;;;;;5057836;28;44711;-70
2023/03/20 00:05:30;;;;;;;4.30;4.00;;;18.40;64.10;;;;;;5055012;28;43427;-72
2023/03/20 00:07:58;;;;;;;4.70;4.30;;;18.40;64.10;;;;;;5066891;28;43847;-70
2023/03/20 00:10:31;;;;;;;3.93;3.83;;;18.30;64.10;;;;;;5057614;28;43590;-69
2023/03/20 00:12:59;;;;;;;4.30;3.90;;;18.30;64.30;;;;;;5055277;28;44720;-71
2023/03/20 00:15:29;;;;;;;4.40;4.20;;;18.40;64.20;;;;;;5052398;28;43619;-71
2023/03/20 00:17:57;;;;;;;4.03;3.87;;;18.30;64.10;;;;;;5064672;28;43521;-71
2023/03/20 00:20:24;;;;;;;3.80;3.70;;;18.30;64.30;;;;;;5054094;28;43855;-70
2023/03/20 00:22:53;;;;;;;4.43;4.13;;;18.20;64.40;;;;;;5056485;28;43525;-71
2023/03/20 00:25:22;;;;;;;4.40;4.20;;;18.20;64.70;;;;;;5049507;28;43480;-71
2023/03/20 00:27:51;;;;;;;3.90;3.70;;;18.20;64.70;;;;;;5063696;28;43495;-71
2023/03/20 00:30:25;;;;;;;3.90;3.77;;;18.20;64.50;;;;;;5057750;28;45733;-70
2023/03/20 00:32:52;;;;;;;4.03;3.83;;;18.20;64.60;;;;;;5053634;28;44530;-69
2023/03/20 00:35:28;;;;;;;4.53;4.23;;;18.20;64.70;;;;;;5053087;28;43471;-69
2023/03/20 00:37:56;;;;;;;3.80;3.60;;;18.10;64.80;;;;;;5057135;28;43431;-70
2023/03/20 00:40:28;;;;;;;3.97;3.77;;;18.10;64.90;;;;;;5057529;28;46160;-69
2023/03/20 00:43:00;;;;;;;4.20;4.00;;;18.20;64.70;;;;;;5056001;28;43530;-69
2023/03/20 00:45:30;;;;;;;4.00;3.80;;;18.30;64.30;;;;;;5055876;28;43907;-70
2023/03/20 00:47:58;;;;;;;4.03;3.83;;;18.40;64.10;;;;;;5056108;28;43637;-70
2023/03/20 00:50:30;;;;;;;3.57;3.43;;;18.40;64.10;;;;;;5059598;28;43567;-71
2023/03/20 00:52:58;;;;;;;4.10;3.90;;;18.30;64.20;;;;;;5061952;28;43411;-71
2023/03/20 00:55:28;;;;;;;3.50;3.40;;;18.30;64.50;;;;;;5063194;28;43771;-71
2023/03/20 00:57:57;;;;;;;4.23;4.13;;;18.30;64.30;;;;;;5054414;28;43754;-71
2023/03/20 01:00:37;;;;;;;3.60;3.50;;;18.30;64.30;;;;;;5060214;28;45630;-70
2023/03/20 01:03:12;;;;;;;3.87;3.67;;;18.30;64.30;;;;;;5060835;28;44922;-71
2023/03/20 01:05:41;;;;;;;4.03;3.83;;;18.20;64.50;;;;;;5060798;28;43496;-71
2023/03/20 01:08:12;;;;;;;4.13;3.93;;;18.20;64.60;;;;;;5061960;28;43632;-71
2023/03/20 01:10:40;;;;;;;4.10;3.90;;;18.20;64.80;;;;;;5058199;28;44163;-71
2023/03/20 01:13:15;;;;;;;3.93;3.73;;;18.20;64.60;;;;;;5058340;28;43443;-70
2023/03/20 01:15:44;;;;;;;3.40;3.30;;;18.20;64.50;;;;;;5058512;28;44004;-72
2023/03/20 01:18:13;;;;;;;3.50;3.40;;;18.20;64.70;;;;;;5055904;28;43474;-71
2023/03/20 01:20:41;;;;;;;3.70;3.50;;;18.10;64.70;;;;;;5058326;28;44015;-71
2023/03/20 01:23:09;;;;;;;3.67;3.43;;;18.10;64.80;;;;;;5052069;28;43629;-70
2023/03/20 01:25:37;;;;;;;3.60;3.50;;;18.10;64.90;;;;;;5058600;28;43474;-71
2023/03/20 01:28:12;;;;;;;3.97;3.67;;;18.20;64.60;;;;;;5052805;28;43534;-70
2023/03/20 01:30:47;;;;;;;3.87;3.67;;;18.30;64.10;;;;;;5057792;28;43953;-70
2023/03/20 01:33:17;;;;;;;3.73;3.60;;;18.40;63.90;;;;;;5061007;28;44955;-71
2023/03/20 01:35:48;;;;;;;3.67;3.57;;;18.40;63.90;;;;;;5052309;28;43502;-71
2023/03/20 01:38:18;;;;;;;3.43;3.23;;;18.40;64.80;;;;;;5052642;28;43553;-70
2023/03/20 01:40:53;;;;;;;3.37;3.27;;;18.40;64.10;;;;;;5055352;28;44249;-71
2023/03/20 01:43:22;;;;;;;3.37;3.27;;;18.40;64.10;;;;;;5052891;28;44123;-71
2023/03/20 01:45:56;;;;;;;3.77;3.60;;;18.30;64.00;;;;;;5058618;28;43449;-71
2023/03/20 01:48:26;;;;;;;3.50;3.40;;;18.30;64.20;;;;;;5054766;28;43479;-70
2023/03/20 01:50:54;;;;;;;3.40;3.30;;;18.20;64.30;;;;;;5073480;28;46046;-70
2023/03/20 01:53:26;;;;;;;3.90;3.70;;;18.20;64.60;;;;;;5072017;27;43974;-71
2023/03/20 01:55:58;;;;;;;3.27;3.17;;;18.20;64.40;;;;;;5053959;28;43543;-70
2023/03/20 01:58:36;;;;;;;3.53;3.43;;;18.20;64.30;;;;;;5054324;28;43435;-69
2023/03/20 02:01:05;;;;;;;3.10;3.00;;;18.20;64.50;;;;;;5049961;28;45777;-72
2023/03/20 02:03:33;;;;;;;3.40;3.30;;;18.20;64.50;;;;;;5053820;28;44080;-71
2023/03/20 02:06:25;;;;;;;3.67;3.50;;;18.10;64.70;;;;;;5059316;28;43371;-71
2023/03/20 02:09:11;;;;;;;4.00;3.87;;;18.10;64.80;;;;;;5055519;28;43550;-70
2023/03/20 02:11:42;;;;;;;3.17;3.07;;;18.20;64.60;;;;;;5053309;28;45633;-71
2023/03/20 02:14:10;;;;;;;3.57;3.47;;;18.10;64.50;;;;;;5056258;28;44855;-70
2023/03/20 02:16:51;;;;;;;3.40;3.30;;;18.10;64.60;;;;;;5053829;28;43434;-70
2023/03/20 02:19:27;;;;;;;3.40;3.30;;;18.10;64.80;;;;;;5053581;28;43625;-71
2023/03/20 02:22:30;;;;;;;3.33;3.23;;;18.10;65.00;;;;;;5061436;28;43565;-70
2023/03/20 02:25:34;;;;;;;3.37;3.27;;;18.10;64.80;;;;;;5059826;28;43455;-71
2023/03/20 02:28:19;;;;;;;3.43;3.33;;;18.30;64.40;;;;;;5053573;28;43579;-71
2023/03/20 02:31:07;;;;;;;3.67;3.57;;;18.40;63.90;;;;;;5059785;28;43502;-71
2023/03/20 02:34:00;;;;;;;3.63;3.53;;;18.40;63.70;;;;;;5058080;28;44037;-72
2023/03/20 02:36:52;;;;;;;3.37;3.27;;;18.40;63.80;;;;;;5054112;28;44114;-70
2023/03/20 02:39:42;;;;;;;3.10;3.00;;;18.40;63.90;;;;;;5058374;28;43453;-71
2023/03/20 02:42:13;;;;;;;3.30;3.20;;;18.40;63.80;;;;;;5053847;28;44100;-72
2023/03/20 02:44:44;;;;;;;3.43;3.33;;;18.30;64.60;;;;;;5055840;28;45752;-70
2023/03/20 02:47:14;;;;;;;3.27;3.17;;;18.30;64.20;;;;;;5057657;28;43376;-70
2023/03/20 02:49:52;;;;;;;3.10;3.00;;;18.20;64.30;;;;;;5062266;28;44093;-70
2023/03/20 02:52:22;;;;;;;3.50;3.30;;;18.20;64.50;;;;;;5057772;28;43977;-71
2023/03/20 02:54:54;;;;;;;3.50;3.40;;;18.20;64.40;;;;;;5065430;28;46795;-72
2023/03/20 02:57:26;;;;;;;2.80;2.70;;;18.20;64.40;;;;;;5053261;28;43343;-69
2023/03/20 02:59:55;;;;;;;3.30;3.20;;;18.20;64.50;;;;;;5064772;28;43481;-70
2023/03/20 03:02:27;;;;;;;3.43;3.33;;;18.10;64.50;;;;;;5061319;28;43538;-69
2023/03/20 03:04:58;;;;;;;3.50;3.40;;;18.10;64.60;;;;;;5057374;28;43553;-71
2023/03/20 03:07:27;;;;;;;3.37;3.27;;;18.10;64.70;;;;;;5058635;28;43485;-70
2023/03/20 03:09:58;;;;;;;3.10;2.97;;;18.20;64.60;;;;;;5052863;28;44012;-70
2023/03/20 03:12:28;;;;;;;3.10;3.00;;;18.10;64.50;;;;;;5060882;28;43390;-71
2023/03/20 03:15:00;;;;;;;3.27;3.17;;;18.10;64.60;;;;;;5053569;28;44120;-71
2023/03/20 03:17:29;;;;;;;3.20;3.10;;;18.10;64.80;;;;;;5052807;28;44480;-70
2023/03/20 03:19:59;;;;;;;3.37;3.27;;;18.10;64.80;;;;;;5059285;28;43422;-70
2023/03/20 03:22:30;;;;;;;3.40;3.30;;;18.10;65.00;;;;;;5053664;28;43609;-69
2023/03/20 03:25:00;;;;;;;3.30;3.20;;;18.20;64.70;;;;;;5056469;28;44230;-70
2023/03/20 03:27:29;;;;;;;3.60;3.50;;;18.30;64.30;;;;;;5058006;28;44475;-71
2023/03/20 03:29:58;;;;;;;3.30;3.20;;;18.40;63.90;;;;;;5051417;28;43438;-72
2023/03/20 03:32:29;;;;;;;3.40;3.30;;;18.40;63.90;;;;;;5058158;28;43458;-71
2023/03/20 03:34:57;;;;;;;3.30;3.20;;;18.30;63.90;;;;;;5053165;28;43758;-70
2023/03/20 03:37:36;;;;;;;3.40;3.30;;;18.30;64.10;;;;;;5056008;28;43403;-71
2023/03/20 03:40:10;;;;;;;3.50;3.40;;;18.30;64.00;;;;;;5050514;28;43525;-70
2023/03/20 03:42:39;;;;;;;3.23;3.13;;;18.30;64.00;;;;;;5057913;28;44302;-70
2023/03/20 03:45:10;;;;;;;3.03;2.97;;;18.30;64.20;;;;;;5056768;28;43869;-70
2023/03/20 03:47:39;;;;;;;3.73;3.63;;;18.20;64.30;;;;;;5056106;28;43534;-72
2023/03/20 03:50:10;;;;;;;3.50;3.40;;;18.20;64.50;;;;;;5054331;28;43858;-71
2023/03/20 03:52:38;;;;;;;3.33;3.13;;;18.20;64.50;;;;;;5045871;28;43618;-70
2023/03/20 03:55:09;;;;;;;3.60;3.50;;;18.20;64.40;;;;;;5059193;28;44968;-71
2023/03/20 03:57:57;;;;;;;3.10;3.00;;;18.20;64.40;;;;;;5060330;28;43375;-72
2023/03/20 04:00:26;;;;;;;3.40;3.30;;;18.20;64.50;;;;;;5051879;28;43825;-70
2023/03/20 04:02:55;;;;;;;3.83;3.73;;;18.10;64.60;;;;;;5054320;28;43637;-69
2023/03/20 04:05:23;;;;;;;3.10;3.03;;;18.10;64.70;;;;;;5046346;28;43839;-71
2023/03/20 04:07:53;;;;;;;3.70;3.60;;;18.10;64.50;;;;;;5051536;28;44042;-69
2023/03/20 04:10:22;;;;;;;3.40;3.30;;;18.10;64.50;;;;;;5049711;28;43486;-70
2023/03/20 04:12:50;;;;;;;3.37;3.27;;;18.20;64.70;;;;;;5055097;28;43472;-70
2023/03/20 04:15:20;;;;;;;4.00;3.90;;;18.10;64.60;;;;;;5058748;28;45993;-71
2023/03/20 04:17:48;;;;;;;3.90;3.80;;;18.10;64.80;;;;;;5058658;28;44314;-71
2023/03/20 04:20:17;;;;;;;3.93;3.83;;;18.10;64.90;;;;;;5055646;28;44031;-69
2023/03/20 04:22:47;;;;;;;4.00;3.80;;;18.20;64.70;;;;;;5060731;28;43609;-70
2023/03/20 04:25:21;;;;;;;3.60;3.50;;;18.30;64.30;;;;;;5055495;28;43917;-70
2023/03/20 04:27:52;;;;;;;3.90;3.80;;;18.40;63.90;;;;;;5060212;28;44805;-70
2023/03/20 04:30:29;;;;;;;3.50;3.40;;;18.40;63.60;;;;;;5053925;28;43372;-70
2023/03/20 04:33:16;;;;;;;3.40;3.30;;;18.40;63.70;;;;;;5051668;28;44017;-70
2023/03/20 04:35:58;;;;;;;3.60;3.50;;;18.40;63.90;;;;;;5059775;28;45969;-71
2023/03/20 04:38:26;;;;;;;4.00;3.90;;;18.40;63.80;;;;;;5058383;28;45051;-71
2023/03/20 04:40:55;;;;;;;3.60;3.50;;;18.30;63.70;;;;;;5050842;28;43486;-71
2023/03/20 04:43:25;;;;;;;3.37;3.27;;;18.30;63.90;;;;;;5057089;28;43586;-70
2023/03/20 04:45:53;;;;;;;4.23;4.03;;;18.20;64.10;;;;;;5051232;28;45355;-70
2023/03/20 04:48:21;;;;;;;3.80;3.70;;;18.20;64.20;;;;;;5060576;28;44800;-71
2023/03/20 04:50:49;;;;;;;3.80;3.70;;;18.20;64.40;;;;;;5061425;28;43870;-71
2023/03/20 04:53:21;;;;;;;3.80;3.70;;;18.20;64.20;;;;;;5058701;28;43953;-71
2023/03/20 04:55:51;;;;;;;3.90;3.80;;;18.20;64.30;;;;;;5055024;28;45016;-70
2023/03/20 04:58:19;;;;;;;3.70;3.60;;;18.20;64.50;;;;;;5057932;28;45265;-70
2023/03/20 05:00:48;;;;;;;3.70;3.60;;;18.10;64.50;;;;;;5066072;28;43409;-72
2023/03/20 05:03:17;;;;;;;3.70;3.60;;;18.10;64.60;;;;;;5060019;28;43624;-70
2023/03/20 05:05:45;;;;;;;3.53;3.43;;;18.10;64.50;;;;;;5054908;28;45588;-71
2023/03/20 05:08:12;;;;;;;3.50;3.40;;;18.10;64.50;;;;;;5061374;28;43458;-70
2023/03/20 05:10:42;;;;;;;3.40;3.30;;;18.10;64.50;;;;;;5060928;28;43457;-69
2023/03/20 05:13:28;;;;;;;3.47;3.37;;;18.10;64.50;;;;;;5051675;28;43802;-71
2023/03/20 05:16:18;;;;;;;3.93;3.83;;;18.10;64.70;;;;;;5065910;28;43854;-70
2023/03/20 05:19:19;;;;;;;3.63;3.53;;;18.10;64.80;;;;;;5049152;28;43415;-70
2023/03/20 05:21:53;;;;;;;3.40;3.30;;;18.20;64.70;;;;;;5052411;28;44029;-70
2023/03/20 05:24:31;;;;;;;3.60;3.50;;;18.30;64.20;;;;;;5050831;28;43517;-71
2023/03/20 05:27:08;;;;;;;3.90;3.80;;;18.40;63.90;;;;;;5052867;28;44807;-72
2023/03/20 05:29:45;;;;;;;3.57;3.47;;;18.40;63.80;;;;;;5055432;28;43767;-70
2023/03/20 05:32:17;;;;;;;3.47;3.37;;;18.30;63.80;;;;;;5064706;28;43448;-71
2023/03/20 05:35:14;;;;;;;3.87;3.77;;;18.30;64.00;;;;;;5010938;28;43631;-71
2023/03/20 05:38:08;;;;;;;3.80;3.70;;;18.30;63.80;;;;;;5053761;28;43595;-70
2023/03/20 05:40:56;;;;;;;3.50;3.40;;;18.30;63.90;;;;;;5055782;28;45023;-70
2023/03/20 05:43:34;;;;;;;3.63;3.53;;;18.20;64.00;;;;;;5053821;28;43522;-70
2023/03/20 05:46:16;;;;;;;3.97;3.87;;;18.20;64.20;;;;;;5058350;28;43561;-71
2023/03/20 05:49:01;;;;;;;3.97;3.87;;;18.20;64.70;;;;;;5075038;28;45984;-71
2023/03/20 05:51:52;;;;;;;4.30;4.20;;;18.20;64.40;;;;;;5065840;28;44036;-70
2023/03/20 05:54:37;;;;;;;4.00;3.90;;;18.10;64.10;;;;;;5052039;28;44110;-70
2023/03/20 05:57:18;;;;;;;4.23;4.13;;;18.10;64.00;;;;;;5058397;28;43818;-71
2023/03/20 06:00:00;;;;;;;4.50;4.30;;;18.10;64.20;;;;;;5055291;28;45699;-71
2023/03/20 06:02:40;;;;;;;4.77;4.57;;;18.10;64.70;;;;;;5053452;28;44114;-71
2023/03/20 06:05:30;;;;;;;3.93;3.83;;;18.10;64.60;;;;;;5058177;28;43488;-71
2023/03/20 06:07:58;;;;;;;4.27;4.17;;;18.20;64.90;;;;;;5056320;28;43737;-71
2023/03/20 06:10:26;;;;;;;4.33;4.23;;;18.30;63.80;;;;;;5056833;28;46083;-70
2023/03/20 06:12:55;;;;;;;4.10;4.00;;;18.30;63.70;;;;;;5065400;28;43393;-70
2023/03/20 06:15:27;;;;;;;4.47;4.37;;;18.30;63.70;;;;;;5052554;28;43428;-71
2023/03/20 06:18:02;;;;;;;4.57;4.37;;;18.20;64.00;;;;;;5054024;28;43429;-71
2023/03/20 06:20:32;;;;;;;4.47;4.37;;;18.30;64.00;;;;;;5053903;28;44046;-72
2023/03/20 06:23:03;;;;;;;4.10;4.00;;;18.30;63.80;;;;;;5075848;28;44868;-71
2023/03/20 06:25:31;;;;;;;4.10;4.00;;;18.20;63.90;;;;;;5059041;28;43382;-72
2023/03/20 06:27:59;;;;;;;3.93;3.83;;;18.20;64.10;;;;;;5052164;28;43604;-71
2023/03/20 06:30:27;;;;;;;4.60;4.50;;;18.10;64.30;;;;;;5053549;28;44146;-71
2023/03/20 06:32:55;;;;;;;4.20;4.10;;;18.10;64.40;;;;;;5051979;28;44952;-69
2023/03/20 06:35:31;;;;;;;4.40;4.30;;;18.10;64.20;;;;;;5060305;28;44711;-71
2023/03/20 06:37:59;;;;;;;4.13;4.03;;;18.10;64.10;;;;;;5055167;28;43376;-70
2023/03/20 06:40:27;;;;;;;3.90;3.80;;;18.20;64.50;;;;;;5059800;28;45793;-70
2023/03/20 06:42:56;;;;;;;4.30;4.10;;;18.10;64.50;;;;;;5054613;28;43978;-71
2023/03/20 06:45:30;;;;;;;4.30;4.10;;;18.10;64.50;;;;;;5064870;28;43431;-70
2023/03/20 06:48:00;;;;;;;4.77;4.57;;;18.10;64.70;;;;;;5055736;28;44847;-71
2023/03/20 06:50:28;;;;;;;4.23;4.13;;;18.20;64.50;;;;;;5054302;28;45823;-70
2023/03/20 06:52:59;;;;;;;4.30;4.10;;;18.30;64.00;;;;;;5059914;28;44761;-70
2023/03/20 06:55:37;;;;;;;4.63;4.53;;;18.30;63.70;;;;;;5050496;28;43522;-70
2023/03/20 06:58:06;;;;;;;4.40;4.30;;;18.30;63.70;;;;;;5048513;28;44100;-71
2023/03/20 07:00:36;;;;;;;4.37;4.27;;;18.30;63.90;;;;;;5058646;28;43835;-71
2023/03/20 07:03:06;;;;;;;4.90;4.70;;;18.30;64.20;;;;;;5054508;28;43844;-71
2023/03/20 07:05:34;;;;;;;4.50;4.40;;;18.30;64.10;;;;;;5057117;28;43446;-70
2023/03/20 07:08:07;;;;;;;4.50;4.30;;;18.30;64.00;;;;;;5050410;28;43774;-70
2023/03/20 07:10:36;;;;;;;4.30;4.20;;;18.20;64.90;;;;;;5051749;28;45990;-72
2023/03/20 07:13:04;;;;;;;4.13;4.03;;;18.20;64.40;;;;;;5057065;28;45374;-70
2023/03/20 07:15:34;;;;;;;4.70;4.50;;;18.10;64.50;;;;;;5053344;28;43894;-71
2023/03/20 07:18:03;;;;;;;4.37;4.17;;;18.10;64.60;;;;;;5046672;28;43540;-70
2023/03/20 07:20:32;;;;;;;3.97;3.67;;;18.20;64.50;;;;;;5052762;28;46693;-71
2023/03/20 07:23:00;;;;;;;4.27;4.17;;;18.10;64.50;;;;;;5050013;28;44627;-71
2023/03/20 07:25:33;;;;;;;4.10;4.00;;;18.10;64.60;;;;;;5052274;28;43468;-71
2023/03/20 07:28:11;;;;;;;5.30;4.23;;;18.10;64.80;;;;;;5055261;28;43530;-70
2023/03/20 07:30:43;;;;;;;5.43;4.17;;;18.10;65.00;;;;;;5048734;28;44036;-70
2023/03/20 07:33:15;;;;;;;4.30;3.90;;;18.10;65.00;;;;;;5049449;28;43935;-69
2023/03/20 07:35:44;;;;;;;4.53;4.10;;;18.20;64.60;;;;;;5055849;28;43438;-70
2023/03/20 07:38:12;;;;;;;4.37;4.03;;;18.30;64.20;;;;;;5055721;28;44068;-71
2023/03/20 07:40:56;;;;;;;4.57;4.20;;;18.30;64.00;;;;;;5048620;28;44169;-71
2023/03/20 07:43:23;;;;;;;4.57;4.27;;;18.30;64.00;;;;;;5058087;28;43420;-71
2023/03/20 07:46:17;;;;;;;4.50;4.20;;;18.30;64.30;;;;;;5054949;28;43516;-70
2023/03/20 07:48:45;;;;;;;4.30;4.10;;;18.30;64.30;;;;;;5052011;28;43440;-71
2023/03/20 07:51:13;;;;;;;4.43;4.23;;;18.30;64.20;;;;;;5057048;28;43943;-70
2023/03/20 07:53:41;;;;;;;4.10;3.90;;;18.20;64.20;;;;;;5052547;28;44418;-71
2023/03/20 07:56:11;;;;;;;3.83;3.63;;;18.20;64.50;;;;;;5048560;28;44102;-70
2023/03/20 07:58:41;;;;;;;4.60;4.13;;;18.10;64.70;;;;;;5062438;28;43489;-69
2023/03/20 08:01:09;;;;;;;5.20;4.73;;;18.10;64.90;;;;;;5053739;28;43645;-71
2023/03/20 08:03:37;;;;;;;4.00;3.83;;;18.10;65.40;;;;;;5056989;28;44072;-70
2023/03/20 08:06:08;;;;;;;3.90;3.70;;;18.10;64.70;;;;;;5047529;28;43426;-71
2023/03/20 08:08:36;;;;;;;3.60;3.40;;;18.10;64.80;;;;;;5059779;28;43486;-70
2023/03/20 08:11:04;;;;;;;3.47;3.27;;;18.10;65.00;;;;;;5049214;28;43946;-70
2023/03/20 08:13:34;;;;;;;3.90;3.60;;;18.00;65.00;;;;;;5062646;28;43400;-71
2023/03/20 08:16:02;;;;;;;3.97;3.77;;;18.00;65.00;;;;;;5055620;28;43586;-69
2023/03/20 08:18:30;;;;;;;3.60;3.50;;;18.10;65.00;;;;;;5055960;28;43947;-71
2023/03/20 08:20:58;;;;;;;3.57;3.37;;;18.10;65.00;;;;;;5060025;28;45157;-71
2023/03/20 08:23:26;;;;;;;3.97;3.73;;;18.10;65.10;;;;;;5059148;28;43870;-71
2023/03/20 08:25:54;;;;;;;4.40;4.07;;;18.00;65.00;;;;;;5056494;28;43474;-70
2023/03/20 08:28:22;;;;;;;4.27;4.07;;;18.00;65.10;;;;;;5056948;28;43561;-69
2023/03/20 08:31:11;;;;;;;3.60;3.50;;;18.00;65.20;;;;;;5065519;28;43882;-71
2023/03/20 08:33:39;;;;;;;3.70;3.43;;;18.20;64.90;;;;;;5059048;28;44519;-71
2023/03/20 08:36:08;;;;;;;3.70;3.60;;;18.30;64.50;;;;;;5054856;28;43411;-71
2023/03/20 08:38:36;;;;;;;3.93;3.80;;;18.30;64.20;;;;;;5051623;28;43380;-70
2023/03/20 08:41:05;;;;;;;3.43;3.33;;;18.30;64.10;;;;;;5050374;28;43928;-70
2023/03/20 08:43:33;;;;;;;3.77;3.67;;;18.30;64.30;;;;;;5052531;28;45058;-70
2023/03/20 08:46:01;;;;;;;5.07;3.90;;;18.30;64.30;;;;;;5056087;28;43474;-72
2023/03/20 08:48:31;;;;;;;3.67;3.57;;;18.30;64.20;;;;;;5055990;28;43431;-70
2023/03/20 08:50:58;;;;;;;3.47;3.37;;;18.30;64.30;;;;;;5060152;28;43775;-70
2023/03/20 08:53:26;;;;;;;3.43;3.33;;;18.20;64.40;;;;;;5052086;28;43355;-71
2023/03/20 08:55:55;;;;;;;3.70;3.60;;;18.20;64.60;;;;;;5084533;28;43403;-70
2023/03/20 08:58:23;;;;;;;3.50;3.40;;;18.10;64.80;;;;;;5055462;28;43578;-71
2023/03/20 09:00:51;;;;;;;3.70;3.60;;;18.10;64.90;;;;;;5056181;28;43906;-71
2023/03/20 09:03:19;;;;;;;3.37;3.07;;;18.20;64.80;;;;;;5063869;28;44010;-70
2023/03/20 09:05:50;;;;;;;3.20;3.10;;;18.10;64.70;;;;;;5058759;28;43438;-71
2023/03/20 09:08:18;;;;;;;3.60;3.50;;;18.10;64.90;;;;;;5057689;28;43458;-71
2023/03/20 09:10:49;;;;;;;3.47;3.30;;;18.10;65.10;;;;;;5058527;28;43839;-71
2023/03/20 09:13:21;;;;;;;3.80;3.50;;;18.10;65.20;;;;;;5061769;28;43468;-70
2023/03/20 09:15:55;;;;;;;3.40;3.30;;;18.10;65.10;;;;;;5059604;28;43329;-71
2023/03/20 09:18:23;;;;;;;3.10;3.00;;;18.10;65.00;;;;;;5063809;28;43457;-72
2023/03/20 09:20:52;;;;;;;3.40;3.30;;;18.10;65.00;;;;;;5056420;28;43645;-71
2023/03/20 09:23:20;;;;;;;3.20;3.10;;;18.10;65.10;;;;;;5058426;28;43509;-71
2023/03/20 09:25:48;;;;;;;3.33;3.23;;;18.00;65.20;;;;;;5054563;28;43473;-71
2023/03/20 09:28:16;;;;;;;3.20;3.10;;;18.00;65.40;;;;;;5053933;28;43514;-72
2023/03/20 09:30:44;;;;;;;3.07;2.97;;;18.10;65.30;;;;;;5057195;28;43922;-70
2023/03/20 09:33:13;;;;;;;3.00;3.00;;;18.20;64.80;;;;;;5056576;28;44004;-71
2023/03/20 09:35:41;;;;;;;3.30;3.20;;;18.30;64.40;;;;;;5050160;28;43846;-71
2023/03/20 09:38:13;;;;;;;2.60;2.60;;;18.40;64.30;;;;;;5058766;28;43491;-71
2023/03/20 09:40:50;;;;;;;3.37;3.27;;;18.30;64.20;;;;;;5049628;28;44010;-72
2023/03/20 09:43:33;;;;;;;2.87;2.77;;;18.30;64.60;;;;;;5055414;28;45661;-70
2023/03/20 09:46:11;;;;;;;3.40;3.30;;;18.30;64.50;;;;;;5056590;28;43454;-71
2023/03/20 09:48:44;;;;;;;2.90;2.80;;;18.30;64.40;;;;;;5054076;28;43556;-72
2023/03/20 09:51:17;;;;;;;2.73;2.73;;;18.20;64.50;;;;;;5049927;28;43812;-71
2023/03/20 09:53:48;;;;;;;3.00;2.90;;;18.20;64.80;;;;;;5052996;28;44072;-71
2023/03/20 09:56:17;;;;;;;2.90;2.90;;;18.10;64.90;;;;;;5062740;28;43388;-70
2023/03/20 09:58:45;;;;;;;2.77;2.77;;;18.10;65.10;;;;;;5060435;28;43482;-72
2023/03/20 10:01:15;;;;;;;2.70;2.70;;;18.10;65.30;;;;;;5054668;28;43666;-71
2023/03/20 10:03:44;;;;;;;2.57;2.57;;;18.10;65.40;;;;;;5056346;28;44122;-71
2023/03/20 10:06:13;;;;;;;2.80;2.80;;;18.00;65.40;;;;;;5058000;28;43419;-71
2023/03/20 10:08:41;;;;;;;2.87;2.87;;;18.00;65.50;;;;;;5056637;28;43444;-72
2023/03/20 10:11:27;;;;;;;3.00;2.90;;;18.00;65.60;;;;;;5058597;28;43955;-71
2023/03/20 10:14:00;;;;;;;3.10;3.00;;;18.00;65.60;;;;;;5048531;28;45108;-70
2023/03/20 10:16:36;;;;;;;2.63;2.63;;;17.90;65.60;;;;;;5051691;28;43459;-71
2023/03/20 10:19:07;;;;;;;3.00;2.90;;;18.10;65.70;;;;;;5055567;28;43518;-70
2023/03/20 10:21:39;;;;;;;2.47;2.47;;;18.20;65.30;;;;;;5058207;28;43597;-70
2023/03/20 10:24:09;;;;;;;2.70;2.60;;;18.30;64.70;;;;;;5059951;28;43478;-70
2023/03/20 10:26:39;;;;;;;2.40;2.40;;;18.50;64.40;;;;;;5054135;28;43510;-70
2023/03/20 10:29:11;;;;;;;2.80;2.80;;;18.60;64.00;;;;;;5054543;28;43489;-69
2023/03/20 10:31:43;;;;;;;2.70;2.70;;;18.80;63.60;;;;;;5054410;28;44061;-69
2023/03/20 10:34:23;;;;;;;2.50;2.50;;;18.90;63.10;;;;;;5056693;28;44998;-70
2023/03/20 10:36:56;;;;;;;2.37;2.37;;;19.00;62.70;;;;;;5051274;28;43510;-70
2023/03/20 10:39:34;;;;;;;2.30;2.30;;;19.10;62.40;;;;;;5057766;28;44003;-71
2023/03/20 10:42:04;;;;;;;2.40;2.40;;;19.20;62.10;;;;;;5054288;28;43902;-71
2023/03/20 10:44:34;;;;;;;2.87;2.77;;;19.30;61.90;;;;;;5049742;28;44958;-71
2023/03/20 10:47:02;;;;;;;2.90;2.80;;;19.30;61.90;;;;;;5058399;27;43471;-69
2023/03/20 10:49:34;;;;;;;2.80;2.80;;;19.20;62.00;;;;;;5059044;28;43394;-70
2023/03/20 10:52:03;;;;;;;2.43;2.43;;;19.10;62.20;;;;;;5055998;28;43866;-71
2023/03/20 10:54:32;;;;;;;2.40;2.40;;;18.90;62.50;;;;;;5056148;28;45254;-71
2023/03/20 10:57:01;;;;;;;2.37;2.37;;;18.80;63.30;;;;;;5052823;28;43638;-71
2023/03/20 10:59:33;;;;;;;2.33;2.33;;;18.80;63.40;;;;;;5046554;28;43843;-71
2023/03/20 11:02:01;;;;;;;2.33;2.33;;;18.70;63.40;;;;;;5053414;28;45902;-69
2023/03/20 11:04:29;;;;;;;2.20;2.20;;;18.60;63.60;;;;;;5053307;28;44032;-70
2023/03/20 11:06:59;;;;;;;2.50;2.47;;;18.50;63.80;;;;;;5048772;28;44303;-71
2023/03/20 11:09:29;;;;;;;2.50;2.50;;;18.40;64.30;;;;;;5051747;28;44215;-72
2023/03/20 11:11:57;;;;;;;2.33;2.33;;;18.40;64.50;;;;;;5062224;28;43611;-71
2023/03/20 11:14:27;;;;;;;2.33;2.33;;;18.30;64.20;;;;;;5061757;28;43513;-71
2023/03/20 11:16:57;;;;;;;2.13;2.13;;;18.30;64.30;;;;;;5063770;28;43446;-71
2023/03/20 11:19:25;;;;;;;2.20;2.20;;;18.20;64.30;;;;;;5058858;28;43372;-69
2023/03/20 11:21:55;;;;;;;2.43;2.43;;;18.20;64.50;;;;;;5051153;28;44244;-69
2023/03/20 11:24:26;;;;;;;2.17;2.17;;;18.20;65.00;;;;;;5061711;28;44106;-69
2023/03/20 11:26:54;;;;;;;2.37;2.37;;;18.30;65.00;;;;;;5053147;28;43480;-69
2023/03/20 11:29:24;;;;;;;2.30;2.30;;;18.40;64.70;;;;;;5052086;28;43794;-69
2023/03/20 11:31:52;;;;;;;2.40;2.40;;;18.40;64.30;;;;;;5064761;28;43914;-71
2023/03/20 11:34:25;;;;;;;2.53;2.50;;;18.50;64.10;;;;;;5054862;28;44983;-70
2023/03/20 11:36:55;;;;;;;2.73;2.63;;;18.40;63.90;;;;;;5054202;28;43388;-72
2023/03/20 11:39:41;;;;;;;2.30;2.30;;;18.40;64.50;;;;;;5051319;28;43371;-72
2023/03/20 11:42:22;;;;;;;2.33;2.33;;;18.40;64.50;;;;;;5050158;28;44027;-70
2023/03/20 11:44:57;;;;;;;2.33;2.33;;;18.30;64.00;;;;;;5054734;28;43477;-70
2023/03/20 11:47:27;;;;;;;2.40;2.40;;;18.30;64.20;;;;;;5049424;28;43461;-71
2023/03/20 11:49:57;;;;;;;2.20;2.20;;;18.20;65.00;;;;;;5060739;28;43877;-71
2023/03/20 11:52:27;;;;;;;2.30;2.30;;;18.20;64.60;;;;;;5052193;28;43899;-71
2023/03/20 11:54:56;;;;;;;2.53;2.53;;;18.20;64.90;;;;;;5059116;28;43728;-70
2023/03/20 11:57:33;;;;;;;2.40;2.40;;;18.20;64.60;;;;;;5062469;28;44071;-69
2023/03/20 12:00:06;;;;;;;2.40;2.40;;;18.10;64.60;;;;;;5060542;28;44075;-71
2023/03/20 12:02:34;;;;;;;2.30;2.30;;;18.10;64.70;;;;;;5058927;28;43895;-70
2023/03/20 12:05:17;;;;;;;2.47;2.40;;;18.10;64.90;;;;;;5054149;28;43427;-71
2023/03/20 12:07:45;;;;;;;2.27;2.27;;;18.10;65.20;;;;;;5057770;28;43324;-71
2023/03/20 12:10:13;;;;;;;2.50;2.50;;;18.10;65.10;;;;;;5063777;28;43706;-71
2023/03/20 12:12:44;;;;;;;2.30;2.30;;;18.20;64.90;;;;;;5057291;28;43619;-70
2023/03/20 12:15:19;;;;;;;2.37;2.30;;;18.30;64.60;;;;;;5065304;28;43437;-69
2023/03/20 12:17:50;;;;;;;2.57;2.57;;;18.30;64.40;;;;;;5059437;28;43441;-70
2023/03/20 12:20:28;;;;;;;2.57;2.47;;;18.30;64.60;;;;;;5065373;28;43467;-70
2023/03/20 12:23:02;;;;;;;2.10;2.10;;;18.20;64.70;;;;;;5056423;28;43757;-70
2023/03/20 12:25:33;;;;;;;2.00;2.00;;;18.30;64.70;;;;;;5058862;28;43455;-69
2023/03/20 12:28:03;;;;;;;1.77;1.77;;;18.20;64.60;;;;;;5060089;28;43398;-70
2023/03/20 12:30:36;;;;;;;2.10;2.10;;;18.20;64.80;;;;;;5055082;28;43569;-71
2023/03/20 12:33:06;;;;;;;2.30;2.30;;;18.10;64.80;;;;;;5054833;28;44456;-70
2023/03/20 12:35:37;;;;;;;2.37;2.20;;;18.10;65.20;;;;;;5054431;28;44853;-70
2023/03/20 12:38:11;;;;;;;2.13;2.13;;;18.10;65.10;;;;;;5056934;28;44767;-70
2023/03/20 12:40:41;;;;;;;1.83;1.83;;;18.10;65.00;;;;;;5056314;28;43535;-70
2023/03/20 12:43:14;;;;;;;2.43;2.33;;;18.10;65.10;;;;;;5052644;28;43839;-72
2023/03/20 12:45:46;;;;;;;2.03;2.03;;;18.10;65.10;;;;;;5056615;28;43428;-70
2023/03/20 12:48:43;;;;;;;2.10;2.10;;;18.10;65.20;;;;;;5058988;28;43465;-71
2023/03/20 12:51:16;;;;;;;2.00;2.00;;;18.00;65.40;;;;;;5047031;28;43570;-71
2023/03/20 12:53:50;;;;;;;2.30;2.30;;;18.20;65.30;;;;;;5061345;28;43907;-71
2023/03/20 12:56:25;;;;;;;2.40;2.30;;;18.30;64.90;;;;;;5057369;28;43548;-70
2023/03/20 12:58:57;;;;;;;2.10;2.10;;;18.30;64.60;;;;;;5058977;28;43370;-70
2023/03/20 13:01:28;;;;;;;1.90;1.90;;;18.30;64.50;;;;;;5060945;28;43510;-72
2023/03/20 13:04:18;;;;;;;2.47;2.37;;;18.20;64.70;;;;;;5058518;28;43950;-72
2023/03/20 13:06:51;;;;;;;1.73;1.73;;;18.20;64.70;;;;;;5052393;28;43400;-70
2023/03/20 13:09:41;;;;;;;2.80;2.70;;;18.20;64.70;;;;;;5061755;28;43506;-71
2023/03/20 13:12:16;;;;;;;2.17;2.17;;;18.20;64.80;;;;;;5066501;28;43440;-72
2023/03/20 13:14:47;;;;;;;2.10;2.10;;;18.10;64.80;;;;;;5052244;28;43921;-72